createdAt,value
2018-07-06T00:02:26.412Z,2.90
2018-07-06T00:05:06.500Z,3.10
2018-07-06T00:07:40.653Z,2.97
2018-07-06T00:13:18.317Z,2.67
2018-07-06T00:15:58.596Z,2.77
2018-07-06T00:18:32.676Z,2.80
2018-07-06T00:21:12.857Z,3.00
2018-07-06T00:23:47.164Z,2.93
2018-07-06T00:26:27.302Z,2.80
2018-07-06T00:29:07.689Z,3.10
2018-07-06T00:31:47.982Z,3.07
2018-07-06T00:34:28.293Z,3.03
2018-07-06T00:37:08.541Z,4.03
2018-07-06T00:39:48.801Z,3.57
2018-07-06T00:42:29.035Z,3.27
2018-07-06T00:45:09.390Z,3.80
2018-07-06T00:47:49.792Z,3.40
2018-07-06T00:50:23.946Z,3.17
2018-07-06T00:53:04.248Z,3.80
2018-07-06T00:55:44.570Z,3.50
2018-07-06T00:58:24.866Z,3.13
2018-07-06T01:01:05.017Z,2.90
2018-07-06T01:03:45.201Z,3.70
2018-07-06T01:06:25.550Z,3.40
2018-07-06T01:09:05.677Z,2.67
2018-07-06T01:11:46.020Z,2.93
2018-07-06T01:14:26.597Z,3.03
2018-07-06T01:17:10.945Z,3.20
2018-07-06T01:19:51.208Z,3.47
2018-07-06T01:22:31.485Z,3.50
2018-07-06T01:25:11.821Z,3.17
2018-07-06T01:27:52.101Z,3.30
2018-07-06T01:30:32.417Z,3.00
2018-07-06T01:33:12.696Z,2.70
2018-07-06T01:35:52.882Z,3.30
2018-07-06T01:38:33.028Z,3.10
2018-07-06T01:41:13.362Z,3.40
2018-07-06T01:43:53.490Z,3.30
2018-07-06T01:46:33.509Z,3.03
2018-07-06T01:49:13.838Z,3.30
2018-07-06T01:51:54.045Z,3.20
2018-07-06T01:54:34.472Z,3.43
2018-07-06T01:57:14.801Z,3.37
2018-07-06T01:59:55.173Z,3.23
2018-07-06T02:02:35.499Z,3.10
2018-07-06T02:05:15.710Z,3.77
2018-07-06T02:07:56.073Z,3.00
2018-07-06T02:10:36.450Z,3.00
2018-07-06T02:13:16.789Z,3.73
2018-07-06T02:15:51.092Z,3.37
2018-07-06T02:18:31.314Z,3.03
2018-07-06T02:21:11.468Z,3.87
2018-07-06T02:23:51.765Z,4.00
2018-07-06T02:26:31.975Z,4.37
2018-07-06T02:29:12.240Z,3.40
2018-07-06T02:31:52.425Z,4.20
2018-07-06T02:34:32.701Z,3.50
2018-07-06T02:37:12.949Z,3.37
2018-07-06T02:39:53.148Z,3.57
2018-07-06T02:42:33.585Z,3.77
2018-07-06T02:45:13.824Z,4.00
2018-07-06T02:47:54.125Z,4.53
2018-07-06T02:50:34.412Z,4.17
2018-07-06T02:53:14.684Z,3.47
2018-07-06T02:55:54.986Z,3.63
2018-07-06T02:58:35.045Z,3.93
2018-07-06T03:01:15.396Z,3.80
2018-07-06T03:03:55.744Z,4.23
2018-07-06T03:06:30.065Z,3.93
2018-07-06T03:09:10.293Z,3.97
2018-07-06T03:11:50.770Z,4.13
2018-07-06T03:14:31.025Z,4.83
2018-07-06T03:17:11.297Z,4.20
2018-07-06T03:19:51.602Z,4.23
2018-07-06T03:22:25.673Z,4.67
2018-07-06T03:25:05.997Z,4.80
2018-07-06T03:27:46.342Z,4.23
2018-07-06T03:30:26.753Z,4.17
2018-07-06T03:33:00.989Z,4.40
2018-07-06T03:35:41.213Z,4.07
2018-07-06T03:38:21.553Z,4.47
2018-07-06T03:41:01.936Z,4.17
2018-07-06T03:43:42.113Z,4.17
2018-07-06T03:46:22.558Z,4.80
2018-07-06T03:49:02.833Z,5.40
2018-07-06T03:51:43.149Z,5.00
2018-07-06T03:54:23.337Z,5.10
2018-07-06T03:57:03.652Z,5.70
2018-07-06T03:59:44.229Z,5.50
2018-07-06T04:02:24.621Z,4.53
2018-07-06T04:05:04.852Z,5.30
2018-07-06T04:07:45.172Z,4.97
2018-07-06T04:10:25.505Z,5.83
2018-07-06T04:13:05.689Z,5.60
2018-07-06T04:15:45.985Z,6.00
2018-07-06T04:18:26.277Z,5.23
2018-07-06T04:21:06.587Z,5.47
2018-07-06T04:23:46.877Z,4.93
2018-07-06T04:26:27.013Z,5.37
2018-07-06T04:29:07.372Z,5.27
2018-07-06T04:31:47.742Z,5.80
2018-07-06T04:34:27.796Z,5.07
2018-07-06T04:37:02.133Z,5.03
2018-07-06T04:39:42.346Z,5.23
2018-07-06T04:42:22.618Z,5.00
2018-07-06T04:45:02.977Z,5.27
2018-07-06T04:47:43.344Z,5.27
2018-07-06T04:50:23.537Z,4.23
2018-07-06T04:53:03.877Z,5.07
2018-07-06T04:55:44.245Z,4.70
2018-07-06T04:58:24.426Z,5.73
2018-07-06T05:01:04.585Z,4.60
2018-07-06T05:03:44.889Z,4.97
2018-07-06T05:06:24.999Z,4.60
2018-07-06T05:09:05.442Z,5.10
2018-07-06T05:11:45.800Z,4.43
2018-07-06T05:14:26.237Z,4.97
2018-07-06T05:17:00.554Z,4.33
2018-07-06T05:19:40.749Z,5.50
2018-07-06T05:22:20.772Z,5.10
2018-07-06T05:25:01.117Z,5.53
2018-07-06T05:27:41.316Z,4.97
2018-07-06T05:30:21.681Z,4.83
2018-07-06T05:33:01.992Z,4.47
2018-07-06T05:35:42.165Z,4.83
2018-07-06T05:38:22.467Z,5.80
2018-07-06T05:41:02.910Z,5.50
2018-07-06T05:43:43.187Z,5.73
2018-07-06T05:46:23.352Z,5.23
2018-07-06T05:49:03.642Z,4.60
2018-07-06T05:51:37.837Z,4.67
2018-07-06T05:54:18.116Z,4.87
2018-07-06T05:56:52.532Z,4.50
2018-07-06T05:59:26.706Z,4.57
2018-07-06T06:02:06.912Z,4.27
2018-07-06T06:04:41.216Z,4.53
2018-07-06T06:07:19.856Z,4.90
2018-07-06T06:09:48.735Z,4.03
2018-07-06T06:12:17.623Z,4.13
2018-07-06T06:14:46.227Z,4.00
2018-07-06T06:17:14.984Z,3.83
2018-07-06T06:19:43.734Z,4.77
2018-07-06T06:22:12.527Z,3.90
2018-07-06T06:24:41.337Z,3.80
2018-07-06T06:27:10.101Z,5.00
2018-07-06T06:29:39.145Z,4.57
2018-07-06T06:32:08.514Z,4.57
2018-07-06T06:34:37.193Z,3.60
2018-07-06T06:37:05.978Z,4.33
2018-07-06T06:39:34.729Z,5.13
2018-07-06T06:42:03.513Z,4.87
2018-07-06T06:44:32.257Z,4.23
2018-07-06T06:47:01.044Z,3.53
2018-07-06T06:49:31.016Z,4.53
2018-07-06T06:51:59.988Z,3.30
2018-07-06T06:54:28.727Z,4.27
2018-07-06T06:56:57.409Z,3.80
2018-07-06T06:59:26.164Z,4.07
2018-07-06T07:01:54.930Z,4.93
2018-07-06T07:04:23.920Z,4.60
2018-07-06T07:06:52.699Z,3.50
2018-07-06T07:09:21.487Z,4.30
2018-07-06T07:11:50.280Z,3.67
2018-07-06T07:14:19.069Z,3.80
2018-07-06T07:16:47.911Z,3.20
2018-07-06T07:19:16.661Z,3.77
2018-07-06T07:21:45.179Z,3.33
2018-07-06T07:24:13.836Z,3.60
2018-07-06T07:26:42.600Z,3.23
2018-07-06T07:29:11.372Z,3.40
2018-07-06T07:31:40.300Z,3.53
2018-07-06T07:34:08.834Z,4.13
2018-07-06T07:36:37.513Z,3.53
2018-07-06T07:39:06.293Z,3.40
2018-07-06T07:41:34.856Z,3.20
2018-07-06T07:44:03.532Z,3.67
2018-07-06T07:46:32.341Z,3.10
2018-07-06T07:49:01.089Z,3.77
2018-07-06T07:52:08.739Z,3.87
2018-07-06T07:54:43.522Z,3.30
2018-07-06T07:57:12.091Z,3.47
2018-07-06T07:59:41.169Z,2.97
2018-07-06T08:02:09.985Z,3.30
2018-07-06T08:04:38.528Z,3.00
2018-07-06T08:07:07.205Z,3.90
2018-07-06T08:09:36.001Z,3.87
2018-07-06T08:12:05.153Z,3.90
2018-07-06T08:14:33.795Z,3.60
2018-07-06T08:17:02.208Z,3.47
2018-07-06T08:19:30.906Z,3.63
2018-07-06T08:21:59.669Z,3.33
2018-07-06T08:24:28.473Z,3.23
2018-07-06T08:26:57.230Z,3.77
2018-07-06T08:29:26.029Z,3.50
2018-07-06T08:31:54.797Z,2.97
2018-07-06T08:34:34.977Z,3.20
2018-07-06T08:37:59.617Z,2.80
2018-07-06T08:40:28.680Z,2.87
2018-07-06T08:42:58.545Z,3.67
2018-07-06T08:45:27.898Z,2.70
2018-07-06T08:47:56.676Z,2.60
2018-07-06T08:50:25.474Z,2.87
2018-07-06T08:52:54.883Z,3.27
2018-07-06T08:55:23.716Z,3.33
2018-07-06T08:57:53.692Z,3.00
2018-07-06T09:00:22.232Z,2.80
2018-07-06T09:02:50.926Z,2.70
2018-07-06T09:05:19.669Z,3.00
2018-07-06T09:07:48.424Z,2.50
2018-07-06T09:10:17.184Z,2.73
2018-07-06T09:12:45.944Z,2.90
2018-07-06T09:15:14.796Z,3.47
2018-07-06T09:17:43.565Z,2.30
2018-07-06T09:20:12.451Z,2.60
2018-07-06T09:22:41.068Z,3.37
2018-07-06T09:25:09.625Z,2.70
2018-07-06T09:27:38.290Z,2.17
2018-07-06T09:30:07.065Z,1.87
2018-07-06T09:32:35.815Z,2.23
2018-07-06T09:35:04.465Z,2.07
2018-07-06T09:37:33.149Z,3.00
2018-07-06T09:40:01.917Z,1.77
2018-07-06T09:42:30.653Z,2.57
2018-07-06T09:44:59.252Z,2.20
2018-07-06T09:47:27.929Z,1.90
2018-07-06T09:49:56.696Z,2.53
2018-07-06T09:52:25.493Z,2.30
2018-07-06T09:54:54.309Z,2.90
2018-07-06T09:57:23.057Z,2.10
2018-07-06T09:59:51.880Z,2.00
2018-07-06T10:02:20.678Z,2.17
2018-07-06T10:04:49.463Z,2.10
2018-07-06T10:07:18.233Z,2.20
2018-07-06T10:09:46.859Z,2.10
2018-07-06T10:12:15.517Z,2.27
2018-07-06T10:14:44.083Z,1.80
2018-07-06T10:17:12.768Z,1.80
2018-07-06T10:19:41.407Z,2.37
2018-07-06T10:22:10.054Z,1.80
2018-07-06T10:24:38.663Z,1.63
2018-07-06T10:27:07.456Z,2.47
2018-07-06T10:29:40.742Z,2.40
2018-07-06T10:32:17.177Z,3.30
2018-07-06T10:34:46.190Z,2.53
2018-07-06T10:37:15.576Z,2.77
2018-07-06T10:39:44.489Z,1.97
2018-07-06T10:42:13.298Z,2.37
2018-07-06T10:44:42.056Z,2.17
2018-07-06T10:47:11.358Z,2.63
2018-07-06T10:49:39.909Z,2.27
2018-07-06T10:52:09.121Z,2.00
2018-07-06T10:54:38.861Z,2.30
2018-07-06T10:57:08.257Z,2.10
2018-07-06T10:59:36.820Z,2.03
2018-07-06T11:02:05.781Z,2.10
2018-07-06T11:04:34.701Z,2.40
2018-07-06T11:07:03.463Z,2.20
2018-07-06T11:09:32.294Z,2.80
2018-07-06T11:12:00.871Z,1.63
2018-07-06T11:14:29.564Z,2.70
2018-07-06T11:16:58.116Z,3.03
2018-07-06T11:19:26.829Z,2.07
2018-07-06T11:21:55.585Z,2.33
2018-07-06T11:24:24.489Z,1.80
2018-07-06T11:26:53.280Z,1.73
2018-07-06T11:29:22.048Z,2.30
2018-07-06T11:31:50.820Z,2.30
2018-07-06T11:34:19.585Z,2.07
2018-07-06T11:36:48.366Z,2.60
2018-07-06T11:39:17.116Z,2.13
2018-07-06T11:41:45.890Z,2.27
2018-07-06T11:44:14.652Z,2.80
2018-07-06T11:46:43.417Z,2.13
2018-07-06T11:49:12.177Z,2.13
2018-07-06T11:51:40.937Z,1.60
2018-07-06T11:54:09.701Z,1.90
2018-07-06T11:56:38.552Z,2.10
2018-07-06T11:59:07.084Z,2.33
2018-07-06T12:01:35.765Z,2.90
2018-07-06T12:04:04.561Z,1.67
2018-07-06T12:06:33.207Z,1.73
2018-07-06T12:09:01.872Z,2.00
2018-07-06T12:11:30.621Z,2.50
2018-07-06T12:13:59.364Z,1.87
2018-07-06T12:16:27.899Z,1.83
2018-07-06T12:18:58.160Z,1.70
2018-07-06T12:21:27.011Z,2.33
2018-07-06T12:23:55.706Z,2.13
2018-07-06T12:26:24.465Z,2.03
2018-07-06T12:28:53.220Z,1.90
2018-07-06T12:31:22.011Z,2.53
2018-07-06T12:33:50.596Z,1.90
2018-07-06T12:36:19.277Z,2.23
2018-07-06T12:38:48.165Z,2.10
2018-07-06T12:41:16.866Z,2.00
2018-07-06T12:43:45.527Z,2.03
2018-07-06T12:46:14.283Z,1.77
2018-07-06T12:48:43.036Z,2.00
2018-07-06T12:51:11.560Z,1.90
2018-07-06T12:53:40.246Z,1.83
2018-07-06T12:56:08.999Z,1.60
2018-07-06T12:58:37.800Z,2.57
2018-07-06T13:01:06.311Z,1.87
2018-07-06T13:03:35.012Z,2.33
2018-07-06T13:06:03.765Z,2.57
2018-07-06T13:08:32.541Z,2.00
2018-07-06T13:11:01.385Z,2.60
2018-07-06T13:13:30.203Z,2.80
2018-07-06T13:15:58.755Z,2.77
2018-07-06T13:18:27.732Z,2.43
2018-07-06T13:20:56.562Z,2.23
2018-07-06T13:23:25.325Z,2.17
2018-07-06T13:25:53.932Z,2.50
2018-07-06T13:28:22.372Z,2.37
2018-07-06T13:30:51.049Z,2.30
2018-07-06T13:33:19.874Z,1.90
2018-07-06T13:35:48.409Z,1.73
2018-07-06T13:38:17.224Z,2.23
2018-07-06T13:40:46.013Z,2.17
2018-07-06T13:43:14.776Z,2.50
2018-07-06T13:45:43.520Z,2.10
2018-07-06T13:48:12.350Z,2.90
2018-07-06T13:50:41.234Z,2.23
2018-07-06T13:53:09.973Z,2.00
2018-07-06T13:55:38.813Z,2.97
2018-07-06T13:58:07.547Z,2.70
2018-07-06T14:00:36.310Z,2.47
2018-07-06T14:03:05.068Z,2.73
2018-07-06T14:05:33.801Z,2.20
2018-07-06T14:08:02.577Z,2.60
2018-07-06T14:10:31.317Z,2.40
2018-07-06T14:13:00.097Z,2.50
2018-07-06T14:15:28.833Z,2.30
2018-07-06T14:17:57.598Z,2.00
2018-07-06T14:20:26.403Z,3.00
2018-07-06T14:22:55.142Z,2.00
2018-07-06T14:25:23.978Z,2.30
2018-07-06T14:27:52.767Z,1.90
2018-07-06T14:30:21.437Z,2.07
2018-07-06T14:32:50.101Z,1.73
2018-07-06T14:35:18.875Z,2.47
2018-07-06T14:37:48.322Z,2.13
2018-07-06T14:40:17.089Z,2.30
2018-07-06T14:42:45.838Z,2.30
2018-07-06T14:45:14.635Z,2.37
2018-07-06T14:47:43.380Z,2.43
2018-07-06T14:50:12.138Z,2.50
2018-07-06T14:52:40.927Z,2.40
2018-07-06T14:55:09.821Z,2.33
2018-07-06T14:57:38.645Z,2.40
2018-07-06T15:00:07.410Z,2.23
2018-07-06T15:02:36.162Z,2.07
2018-07-06T15:05:04.721Z,2.50
2018-07-06T15:07:33.401Z,2.80
2018-07-06T15:10:02.218Z,2.47
2018-07-06T15:12:30.889Z,2.03
2018-07-06T15:14:59.526Z,2.40
2018-07-06T15:17:28.298Z,2.03
2018-07-06T15:19:57.064Z,2.47
2018-07-06T15:22:26.645Z,2.23
2018-07-06T15:24:55.386Z,2.07
2018-07-06T15:27:24.117Z,2.47
2018-07-06T15:29:52.917Z,2.70
2018-07-06T15:32:21.734Z,3.17
2018-07-06T15:34:50.490Z,2.60
2018-07-06T15:37:19.250Z,2.17
2018-07-06T15:39:48.046Z,2.30
2018-07-06T15:42:16.822Z,2.47
2018-07-06T15:44:45.653Z,2.97
2018-07-06T15:47:14.428Z,3.13
2018-07-06T15:49:43.300Z,2.50
2018-07-06T15:52:11.997Z,2.00
2018-07-06T15:54:40.789Z,2.40
2018-07-06T15:57:09.818Z,2.93
2018-07-06T15:59:38.620Z,2.30
2018-07-06T16:02:07.353Z,2.20
2018-07-06T16:04:36.154Z,2.20
2018-07-06T16:07:04.878Z,2.50
2018-07-06T16:09:33.613Z,2.10
2018-07-06T16:12:02.389Z,2.40
2018-07-06T16:14:31.135Z,2.60
2018-07-06T16:16:59.851Z,2.10
2018-07-06T16:19:28.663Z,2.23
2018-07-06T16:21:57.385Z,1.87
2018-07-06T16:24:26.125Z,3.20
2018-07-06T16:26:54.868Z,2.70
2018-07-06T16:29:23.618Z,1.80
2018-07-06T16:31:52.416Z,2.33
2018-07-06T16:34:22.017Z,2.30
2018-07-06T16:36:50.837Z,2.53
2018-07-06T16:39:19.586Z,2.10
2018-07-06T16:41:48.370Z,2.30
2018-07-06T16:44:17.300Z,2.37
2018-07-06T16:46:46.078Z,2.70
2018-07-06T16:49:15.325Z,2.40
2018-07-06T16:51:44.140Z,1.90
2018-07-06T16:54:13.169Z,2.13
2018-07-06T16:56:41.949Z,2.47
2018-07-06T16:59:10.818Z,3.50
2018-07-06T17:01:39.658Z,2.20
2018-07-06T17:04:08.433Z,1.90
2018-07-06T17:06:37.215Z,2.30
2018-07-06T17:09:06.436Z,1.87
2018-07-06T17:11:35.211Z,2.53
2018-07-06T17:14:04.862Z,2.07
2018-07-06T17:16:33.869Z,1.77
2018-07-06T17:19:02.626Z,3.00
2018-07-06T17:21:31.555Z,2.07
2018-07-06T17:24:00.295Z,2.50
2018-07-06T17:26:29.064Z,3.23
2018-07-06T17:28:57.828Z,2.67
2018-07-06T17:31:26.627Z,2.30
2018-07-06T17:33:55.417Z,2.23
2018-07-06T17:36:24.295Z,2.47
2018-07-06T17:38:53.041Z,2.10
2018-07-06T17:41:21.880Z,2.27
2018-07-06T17:43:50.646Z,1.77
2018-07-06T17:46:19.441Z,1.67
2018-07-06T17:48:48.184Z,2.23
2018-07-06T17:51:16.945Z,2.37
2018-07-06T17:53:45.724Z,2.23
2018-07-06T17:56:14.527Z,2.40
2018-07-06T17:58:43.294Z,2.43
2018-07-06T18:01:12.088Z,2.10
2018-07-06T18:03:40.809Z,1.83
2018-07-06T18:06:09.831Z,1.80
2018-07-06T18:08:38.605Z,2.10
2018-07-06T18:11:07.369Z,2.37
2018-07-06T18:13:36.213Z,2.43
2018-07-06T18:16:05.147Z,2.23
2018-07-06T18:18:33.857Z,2.13
2018-07-06T18:21:02.632Z,2.03
2018-07-06T18:23:31.404Z,2.87
2018-07-06T18:26:00.157Z,2.00
2018-07-06T18:28:28.993Z,4.00
2018-07-06T18:30:57.736Z,2.40
2018-07-06T18:33:26.496Z,2.53
2018-07-06T18:35:55.255Z,2.40
2018-07-06T18:38:24.200Z,2.60
2018-07-06T18:40:52.976Z,2.00
2018-07-06T18:43:21.781Z,2.33
2018-07-06T18:45:50.578Z,2.40
2018-07-06T18:48:19.341Z,1.87
2018-07-06T18:50:48.149Z,2.27
2018-07-06T18:53:16.940Z,2.63
2018-07-06T18:55:45.728Z,2.73
2018-07-06T18:58:14.492Z,2.27
2018-07-06T19:00:43.241Z,2.10
2018-07-06T19:03:12.017Z,1.90
2018-07-06T19:05:40.783Z,2.30
2018-07-06T19:08:09.669Z,2.80
2018-07-06T19:10:38.443Z,3.53
2018-07-06T19:13:07.195Z,2.50
2018-07-06T19:15:35.931Z,2.30
2018-07-06T19:18:04.733Z,2.33
2018-07-06T19:20:33.457Z,2.63
2018-07-06T19:23:02.195Z,2.90
2018-07-06T19:25:30.997Z,2.13
2018-07-06T19:27:59.753Z,2.10
2018-07-06T19:30:28.585Z,2.80
2018-07-06T19:32:57.381Z,2.13
2018-07-06T19:35:26.181Z,2.60
2018-07-06T19:37:55.005Z,2.60
2018-07-06T19:40:23.761Z,3.10
2018-07-06T19:42:52.533Z,2.30
2018-07-06T19:45:21.352Z,2.60
2018-07-06T19:47:50.081Z,2.47
2018-07-06T19:50:18.869Z,3.13
2018-07-06T19:52:47.641Z,1.97
2018-07-06T19:55:16.675Z,2.57
2018-07-06T19:57:45.526Z,2.50
2018-07-06T20:00:14.315Z,2.13
2018-07-06T20:02:43.114Z,3.10
2018-07-06T20:05:11.878Z,3.20
2018-07-06T20:07:40.622Z,2.67
2018-07-06T20:10:09.385Z,2.27
2018-07-06T20:12:38.153Z,2.77
2018-07-06T20:15:07.040Z,3.23
2018-07-06T20:17:36.123Z,2.40
2018-07-06T20:20:06.192Z,2.20
2018-07-06T20:22:34.881Z,2.23
2018-07-06T20:25:03.655Z,2.83
2018-07-06T20:27:32.411Z,2.60
2018-07-06T20:30:01.495Z,2.70
2018-07-06T20:32:30.506Z,2.33
2018-07-06T20:34:59.625Z,2.40
2018-07-06T20:37:28.397Z,3.57
2018-07-06T20:39:57.277Z,2.70
2018-07-06T20:42:26.192Z,2.00
2018-07-06T20:44:54.997Z,2.40
2018-07-06T20:47:23.866Z,3.77
2018-07-06T20:49:52.664Z,2.30
2018-07-06T20:52:21.422Z,3.23
2018-07-06T20:54:50.079Z,3.37
2018-07-06T20:57:18.762Z,2.33
2018-07-06T20:59:47.537Z,2.30
2018-07-06T21:02:16.340Z,2.77
2018-07-06T21:04:45.199Z,2.93
2018-07-06T21:07:13.719Z,2.63
2018-07-06T21:09:42.529Z,3.30
2018-07-06T21:12:11.086Z,3.27
2018-07-06T21:14:39.821Z,2.57
2018-07-06T21:17:08.580Z,2.17
2018-07-06T21:19:37.168Z,2.53
2018-07-06T21:22:06.424Z,3.27
2018-07-06T21:24:35.306Z,3.50
2018-07-06T21:27:04.099Z,2.73
2018-07-06T21:29:32.888Z,3.10
2018-07-06T21:32:01.981Z,2.73
2018-07-06T21:34:30.817Z,2.27
2018-07-06T21:36:59.370Z,2.67
2018-07-06T21:39:28.112Z,2.07
2018-07-06T21:41:56.953Z,3.03
2018-07-06T21:44:25.829Z,2.07
2018-07-06T21:46:54.605Z,2.60
2018-07-06T21:49:23.373Z,3.47
2018-07-06T21:51:52.183Z,2.40
2018-07-06T21:54:20.775Z,3.07
2018-07-06T21:56:49.492Z,3.20
2018-07-06T21:59:18.280Z,2.80
2018-07-06T22:01:47.057Z,2.50
2018-07-06T22:04:16.169Z,2.17
2018-07-06T22:06:45.072Z,2.33
2018-07-06T22:09:13.829Z,2.63
2018-07-06T22:11:42.631Z,3.50
2018-07-06T22:14:11.433Z,2.73
2018-07-06T22:16:40.012Z,2.63
2018-07-06T22:19:08.593Z,2.70
2018-07-06T22:21:37.053Z,3.30
2018-07-06T22:24:05.925Z,3.00
2018-07-06T22:26:34.849Z,3.10
2018-07-06T22:29:03.657Z,2.73
2018-07-06T22:31:32.445Z,3.27
2018-07-06T22:34:01.000Z,2.83
2018-07-06T22:36:29.684Z,2.37
2018-07-06T22:38:58.480Z,2.80
2018-07-06T22:41:27.600Z,2.63
2018-07-06T22:43:56.180Z,2.60
2018-07-06T22:46:24.868Z,3.10
2018-07-06T22:48:53.416Z,2.87
2018-07-06T22:51:22.336Z,2.00
2018-07-06T22:53:51.104Z,3.20
2018-07-06T22:56:19.916Z,3.50
2018-07-06T22:58:48.498Z,2.90
2018-07-06T23:01:17.177Z,2.87
2018-07-06T23:03:45.952Z,2.53
2018-07-06T23:06:14.762Z,2.37
2018-07-06T23:08:43.356Z,2.63
2018-07-06T23:11:12.293Z,2.33
2018-07-06T23:13:41.124Z,2.60
2018-07-06T23:16:09.720Z,2.53
2018-07-06T23:18:38.452Z,2.97
2018-07-06T23:21:07.917Z,2.73
2018-07-06T23:23:36.677Z,3.07
2018-07-06T23:26:05.624Z,3.13
2018-07-06T23:28:34.385Z,2.77
2018-07-06T23:31:03.005Z,2.73
2018-07-06T23:33:31.709Z,2.50
2018-07-06T23:36:00.525Z,2.47
2018-07-06T23:38:29.324Z,2.70
2018-07-06T23:40:58.116Z,2.40
2018-07-06T23:43:26.892Z,2.80
2018-07-06T23:45:55.877Z,3.13
2018-07-06T23:48:24.677Z,2.90
2018-07-06T23:50:53.456Z,2.60
2018-07-06T23:53:22.217Z,3.27
2018-07-06T23:55:51.085Z,4.13
2018-07-06T23:58:19.843Z,2.93
